FZAA/FIH METAR and TAF weather

Enter ICAO airport designator
Station Type Date Time Source
FZAA METAR 2022/06/28 08:00 UTC NOAA

FZAA 280800Z 18006KT 6000 BKN016 23/18 Q1016 NOSIG


Station Type Date Time Source
FZAA Decoded METAR 2022/06/28 08:00 UTC NOAA

Kinshasa / N'Djili, Congo, Democratic Republic of the (FZAA) 04-23S 015-26E 312M
Jun 28, 2022 - 04:00 AM EDT / 2022.06.28 0800 UTC
Wind: from the S (180 degrees) at 7 MPH (6 KT):0
Visibility: 3 mile(s):0
Sky conditions: mostly cloudy
Temperature: 73 F (23 C)
Dew Point: 64 F (18 C)
Relative Humidity: 73%
Pressure (altimeter): 30.00 in. Hg (1016 hPa)
ob: FZAA 280800Z 18006KT 6000 BKN016 23/18 Q1016 NOSIG
cycle: 8

Station Type Date Time Source
FZAA TAF 2022/06/28 06:33 UTC NOAA

TAF FZAA 280500Z 2806/2912 22008KT 6000 SCT014
TEMPO 2806/2810 4000 BR
BECMG 2811/2813 30008KT FEW020

Example: see airport list